Time;durP1;ratioP1;P1;durP2;ratioP2;P2;SDS_P1;SDS_P2;PMS_P1;PMS_P2;Temp;Humidity;BMP_temperature;BMP_pressure;BME280_temperature;BME280_humidity;BME280_pressure;Samples;Min_cycle;Max_cycle;Signal;HPM_P1;HPM_P2
2023/10/29 00:01:26;;;;;;;4.75;2.10;;;11.10;99.90;;;;;;4807024;29;20296;-83
2023/10/29 00:03:52;;;;;;;3.30;1.95;;;11.10;99.90;;;;;;4814084;29;20110;-82
2023/10/29 00:06:18;;;;;;;4.05;2.03;;;11.00;99.90;;;;;;4798333;29;20037;-83
2023/10/29 00:08:43;;;;;;;2.75;1.80;;;11.10;99.90;;;;;;4787349;29;20061;-83
2023/10/29 00:11:12;;;;;;;2.78;1.90;;;11.20;99.90;;;;;;4821388;29;20489;-82
2023/10/29 00:13:37;;;;;;;3.53;1.92;;;11.20;99.90;;;;;;4804056;29;20141;-82
2023/10/29 00:16:03;;;;;;;2.13;1.58;;;11.20;99.90;;;;;;4814127;29;20191;-82
2023/10/29 00:18:29;;;;;;;2.95;2.00;;;11.10;99.90;;;;;;4782615;29;20052;-82
2023/10/29 00:20:54;;;;;;;2.15;1.63;;;11.20;99.90;;;;;;4818247;29;20043;-82
2023/10/29 00:23:20;;;;;;;3.50;2.00;;;11.20;99.90;;;;;;4832495;29;20097;-82
2023/10/29 00:25:46;;;;;;;3.72;1.73;;;11.20;99.90;;;;;;4782034;29;20050;-82
2023/10/29 00:28:12;;;;;;;3.88;2.33;;;11.10;99.90;;;;;;4800423;29;20057;-82
2023/10/29 00:30:38;;;;;;;2.88;2.10;;;11.10;99.90;;;;;;4820244;29;20045;-82
2023/10/29 00:33:04;;;;;;;3.47;2.28;;;11.20;99.90;;;;;;4810916;29;20064;-82
2023/10/29 00:35:30;;;;;;;3.20;2.00;;;11.10;99.90;;;;;;4807426;29;20747;-82
2023/10/29 00:37:55;;;;;;;2.78;2.08;;;11.20;99.90;;;;;;4814489;29;20499;-82
2023/10/29 00:40:21;;;;;;;3.40;2.15;;;11.20;99.90;;;;;;4802464;29;20065;-83
2023/10/29 00:42:47;;;;;;;3.90;2.25;;;11.40;99.90;;;;;;4813153;29;20050;-83
2023/10/29 00:45:13;;;;;;;3.08;1.80;;;11.30;99.90;;;;;;4804023;29;20050;-83
2023/10/29 00:47:39;;;;;;;2.92;2.00;;;11.30;99.90;;;;;;4790529;29;20047;-84
2023/10/29 00:50:05;;;;;;;3.22;1.80;;;11.40;99.90;;;;;;4806381;29;20054;-83
2023/10/29 00:52:32;;;;;;;3.50;1.88;;;11.40;99.90;;;;;;4808574;29;20054;-84
2023/10/29 00:54:58;;;;;;;2.53;1.80;;;11.20;99.90;;;;;;4821676;29;20057;-84
2023/10/29 00:57:24;;;;;;;2.97;1.77;;;11.40;99.90;;;;;;4824616;29;20050;-84
2023/10/29 00:59:50;;;;;;;2.85;1.65;;;11.20;99.90;;;;;;4807138;29;20049;-84
2023/10/29 01:02:16;;;;;;;;;;;11.50;99.90;;;;;;4810242;29;20361;-84
2023/10/29 01:04:43;;;;;;;2.80;1.73;;;11.50;99.90;;;;;;4779864;29;19928;-79
2023/10/29 01:07:09;;;;;;;1.63;1.52;;;11.50;99.90;;;;;;4800008;29;20106;-79
2023/10/29 01:09:34;;;;;;;2.28;1.70;;;11.50;99.90;;;;;;4801494;29;20058;-79
2023/10/29 01:12:00;;;;;;;2.15;1.67;;;11.30;99.90;;;;;;4810023;29;20054;-79
2023/10/29 01:14:26;;;;;;;3.10;1.52;;;11.30;99.90;;;;;;4788206;29;20051;-79
2023/10/29 01:16:51;;;;;;;3.08;1.80;;;11.50;99.90;;;;;;4812938;29;20456;-79
2023/10/29 01:19:17;;;;;;;3.83;1.40;;;11.50;99.90;;;;;;4798363;29;20458;-79
2023/10/29 01:21:43;;;;;;;1.77;1.52;;;11.50;99.90;;;;;;4799475;29;20058;-79
2023/10/29 01:24:09;;;;;;;3.47;1.48;;;11.40;99.90;;;;;;4779801;29;20093;-78
2023/10/29 01:26:34;;;;;;;2.03;1.50;;;11.40;99.90;;;;;;4781512;29;20042;-79
2023/10/29 01:29:00;;;;;;;2.13;1.50;;;11.70;99.90;;;;;;4781380;29;21041;-79
2023/10/29 01:31:29;;;;;;;1.55;1.40;;;11.70;99.90;;;;;;4813016;29;20057;-79
2023/10/29 01:33:54;;;;;;;2.17;1.58;;;11.50;99.90;;;;;;4794520;29;20062;-79
2023/10/29 01:36:20;;;;;;;2.53;1.48;;;11.70;99.90;;;;;;4780777;29;20201;-79
2023/10/29 01:38:46;;;;;;;2.92;1.40;;;11.50;99.90;;;;;;4789604;29;20153;-79
2023/10/29 01:41:11;;;;;;;2.63;1.45;;;11.60;99.90;;;;;;4814462;29;20107;-78
2023/10/29 01:43:37;;;;;;;2.17;1.60;;;11.50;99.90;;;;;;4812016;29;20366;-79
2023/10/29 01:46:03;;;;;;;2.35;1.42;;;11.60;99.90;;;;;;4796895;29;20101;-79
2023/10/29 01:48:28;;;;;;;3.05;1.50;;;11.60;99.90;;;;;;4829186;29;20114;-79
2023/10/29 01:50:55;;;;;;;1.63;1.23;;;11.70;99.90;;;;;;4811301;29;20617;-79
2023/10/29 01:53:21;;;;;;;2.90;1.58;;;12.00;99.90;;;;;;4828569;29;20129;-78
2023/10/29 01:55:47;;;;;;;1.98;1.55;;;11.70;99.90;;;;;;4796549;29;20153;-79
2023/10/29 01:58:12;;;;;;;3.80;1.98;;;11.90;99.90;;;;;;4828199;29;20054;-78
2023/10/29 02:00:39;;;;;;;2.00;1.50;;;12.00;99.90;;;;;;4811434;29;20103;-78
2023/10/29 02:03:05;;;;;;;1.80;1.60;;;11.90;99.90;;;;;;4796039;29;20055;-78
2023/10/29 02:05:31;;;;;;;2.63;1.60;;;12.20;99.90;;;;;;4795710;29;20046;-78
2023/10/29 02:07:56;;;;;;;2.40;1.58;;;12.10;99.90;;;;;;4797073;29;20133;-79
2023/10/29 02:10:25;;;;;;;1.88;1.50;;;12.20;99.90;;;;;;4826396;29;20058;-78
2023/10/29 02:12:51;;;;;;;2.97;1.83;;;12.20;99.90;;;;;;4811886;29;20078;-78
2023/10/29 02:15:17;;;;;;;;;;;12.10;99.90;;;;;;4811736;29;20066;-78
2023/10/29 02:17:43;;;;;;;2.60;1.70;;;12.40;99.90;;;;;;4811957;29;19935;-79
2023/10/29 02:20:09;;;;;;;2.28;1.65;;;12.40;99.90;;;;;;4810119;29;20126;-78
2023/10/29 02:22:35;;;;;;;2.40;1.60;;;12.30;99.90;;;;;;4828754;29;20080;-78
2023/10/29 02:25:01;;;;;;;3.30;1.80;;;12.30;99.90;;;;;;4812935;29;20057;-78
2023/10/29 02:27:27;;;;;;;2.70;1.52;;;12.30;99.90;;;;;;4793325;29;20054;-78
2023/10/29 02:29:54;;;;;;;2.92;1.65;;;12.70;99.90;;;;;;4829106;29;20118;-78
2023/10/29 02:32:20;;;;;;;1.90;1.20;;;12.70;99.90;;;;;;4827906;29;20053;-78
2023/10/29 02:34:45;;;;;;;3.45;1.40;;;12.40;99.90;;;;;;4827461;29;20122;-78
2023/10/29 02:37:11;;;;;;;1.85;1.40;;;12.50;99.90;;;;;;4825388;29;20133;-78
2023/10/29 02:39:37;;;;;;;2.40;1.30;;;12.80;99.90;;;;;;4828252;29;20046;-78
2023/10/29 02:42:03;;;;;;;2.35;1.63;;;12.50;99.90;;;;;;4827457;29;20058;-78
2023/10/29 02:44:28;;;;;;;2.13;1.30;;;12.80;99.90;;;;;;4812634;29;20061;-78
2023/10/29 02:46:54;;;;;;;1.52;1.30;;;12.60;99.90;;;;;;4828178;29;20169;-78
2023/10/29 02:49:20;;;;;;;2.03;1.20;;;12.60;99.90;;;;;;4814425;29;20181;-79
2023/10/29 02:51:45;;;;;;;2.67;1.63;;;12.80;99.90;;;;;;4824180;29;20142;-78
2023/10/29 02:54:11;;;;;;;3.08;1.38;;;12.70;99.90;;;;;;4823938;29;20053;-78
2023/10/29 02:56:37;;;;;;;1.92;1.20;;;12.70;99.90;;;;;;4821339;29;20434;-78
2023/10/29 02:59:03;;;;;;;3.22;1.27;;;12.50;99.90;;;;;;4825373;29;20062;-78
2023/10/29 03:01:29;;;;;;;3.08;1.50;;;12.50;99.90;;;;;;4809377;29;20034;-79
2023/10/29 03:03:54;;;;;;;1.58;1.15;;;12.60;99.90;;;;;;4811389;29;20701;-78
2023/10/29 03:06:20;;;;;;;3.63;1.98;;;12.70;99.90;;;;;;4809875;29;21585;-78
2023/10/29 03:08:46;;;;;;;2.70;1.13;;;12.70;99.90;;;;;;4811100;29;20525;-78
2023/10/29 03:11:12;;;;;;;2.28;1.40;;;12.40;99.90;;;;;;4807792;29;20119;-78
2023/10/29 03:13:38;;;;;;;1.95;1.15;;;12.70;99.90;;;;;;4825743;29;20097;-79
2023/10/29 03:16:04;;;;;;;3.03;1.52;;;12.50;99.90;;;;;;4794095;29;20054;-78
2023/10/29 03:18:30;;;;;;;1.63;1.05;;;12.60;99.90;;;;;;4809167;29;20141;-78
2023/10/29 03:20:56;;;;;;;2.40;1.23;;;12.60;99.90;;;;;;4828145;29;20195;-78
2023/10/29 03:23:23;;;;;;;2.30;1.10;;;12.40;99.90;;;;;;4787131;29;20054;-78
2023/10/29 03:25:49;;;;;;;2.15;1.10;;;12.70;99.90;;;;;;4799720;29;20077;-79
2023/10/29 03:28:15;;;;;;;2.63;1.20;;;12.40;99.90;;;;;;4824695;29;20050;-79
2023/10/29 03:30:41;;;;;;;2.33;1.10;;;12.60;99.90;;;;;;4796085;29;20064;-78
2023/10/29 03:33:06;;;;;;;2.08;1.20;;;12.70;99.90;;;;;;4825093;29;20058;-78
2023/10/29 03:35:32;;;;;;;1.85;1.17;;;12.50;99.90;;;;;;4823031;29;20065;-78
2023/10/29 03:37:58;;;;;;;3.53;1.15;;;12.70;99.90;;;;;;4790684;29;20311;-78
2023/10/29 03:40:23;;;;;;;2.17;1.20;;;12.60;99.90;;;;;;4795776;29;20087;-78
2023/10/29 03:42:49;;;;;;;2.80;1.13;;;12.40;99.90;;;;;;4811566;29;20434;-78
2023/10/29 03:45:15;;;;;;;2.47;1.20;;;12.70;99.90;;;;;;4826229;29;20125;-78
2023/10/29 03:47:43;;;;;;;1.50;0.93;;;12.50;99.90;;;;;;4809789;29;20078;-78
2023/10/29 03:50:09;;;;;;;2.40;1.02;;;12.60;99.90;;;;;;4822749;29;20363;-78
2023/10/29 03:52:35;;;;;;;2.22;0.93;;;12.70;99.90;;;;;;4823340;29;20053;-78
2023/10/29 03:55:01;;;;;;;2.85;1.00;;;12.70;99.90;;;;;;4821129;29;20138;-78
2023/10/29 03:57:27;;;;;;;1.60;0.98;;;12.70;99.90;;;;;;4824901;29;20101;-78
2023/10/29 03:59:52;;;;;;;2.58;0.95;;;12.70;99.90;;;;;;4830881;29;20058;-78
2023/10/29 04:02:18;;;;;;;2.83;0.98;;;12.60;99.90;;;;;;4834565;29;20052;-78
2023/10/29 04:04:44;;;;;;;1.63;1.10;;;12.70;99.90;;;;;;4824681;29;20439;-78
2023/10/29 04:07:10;;;;;;;4.22;1.17;;;12.70;99.90;;;;;;4825942;29;20408;-78
2023/10/29 04:09:35;;;;;;;5.28;1.10;;;12.60;99.90;;;;;;4811472;29;20092;-84
2023/10/29 04:12:02;;;;;;;2.33;0.82;;;12.80;99.90;;;;;;4836639;29;20556;-84
2023/10/29 04:14:28;;;;;;;2.70;0.98;;;12.70;99.90;;;;;;4830780;29;20090;-84
2023/10/29 04:16:54;;;;;;;1.65;0.98;;;12.70;99.90;;;;;;4808439;29;20088;-84
2023/10/29 04:19:19;;;;;;;2.38;1.10;;;12.80;99.90;;;;;;4831834;29;20065;-84
2023/10/29 04:21:45;;;;;;;1.17;0.82;;;12.90;99.90;;;;;;4799978;29;20054;-84
2023/10/29 04:24:11;;;;;;;3.17;0.90;;;12.80;99.90;;;;;;4796412;29;20077;-84
2023/10/29 04:26:36;;;;;;;3.50;1.00;;;12.80;99.90;;;;;;4810839;29;20043;-84
2023/10/29 04:29:02;;;;;;;1.60;0.85;;;12.90;99.90;;;;;;4800092;29;20058;-83
2023/10/29 04:31:28;;;;;;;3.17;1.00;;;12.90;99.90;;;;;;4799682;29;20062;-83
2023/10/29 04:33:54;;;;;;;2.90;1.05;;;12.90;99.90;;;;;;4784460;29;20467;-83
2023/10/29 04:36:22;;;;;;;2.80;1.08;;;13.00;99.90;;;;;;4799031;29;20066;-83
2023/10/29 04:38:53;;;;;;;2.75;0.95;;;12.90;99.90;;;;;;4838671;29;20062;-83
2023/10/29 04:41:19;;;;;;;2.33;0.75;;;13.00;99.90;;;;;;4799149;29;20632;-83
2023/10/29 04:43:45;;;;;;;1.88;0.63;;;12.90;99.90;;;;;;4815453;29;20138;-82
2023/10/29 04:46:12;;;;;;;1.75;0.57;;;12.70;99.90;;;;;;4819065;29;20530;-78
2023/10/29 04:48:39;;;;;;;1.17;0.43;;;12.70;99.90;;;;;;4801322;29;20057;-78
2023/10/29 04:51:07;;;;;;;;;;;12.50;99.90;;;;;;4794901;29;20062;-78
2023/10/29 04:53:34;;;;;;;0.95;0.40;;;12.50;99.90;;;;;;4812870;29;19925;-78
2023/10/29 04:55:59;;;;;;;0.20;0.20;;;12.40;99.90;;;;;;4814016;29;20145;-78
2023/10/29 04:58:25;;;;;;;1.05;0.20;;;12.30;99.90;;;;;;4800973;29;20057;-78
2023/10/29 05:00:51;;;;;;;0.65;0.30;;;12.30;99.90;;;;;;4810093;29;20368;-78
2023/10/29 05:03:17;;;;;;;0.47;0.20;;;12.20;99.90;;;;;;4798353;29;20054;-78
2023/10/29 05:05:42;;;;;;;2.45;0.57;;;12.20;99.90;;;;;;4781782;29;23530;-78
2023/10/29 05:08:08;;;;;;;0.60;0.40;;;12.20;99.90;;;;;;4797987;29;20468;-78
2023/10/29 05:10:36;;;;;;;1.20;0.40;;;12.20;99.90;;;;;;4792808;29;20061;-78
2023/10/29 05:13:02;;;;;;;1.40;0.52;;;12.10;99.90;;;;;;4817665;29;20046;-78
2023/10/29 05:15:28;;;;;;;1.75;0.52;;;12.20;99.90;;;;;;4810766;29;20103;-78
2023/10/29 05:17:55;;;;;;;1.55;0.40;;;12.20;99.90;;;;;;4812177;29;20427;-78
2023/10/29 05:20:21;;;;;;;0.30;0.30;;;12.10;99.90;;;;;;4795909;29;20055;-78
2023/10/29 05:22:47;;;;;;;2.20;0.50;;;12.00;99.90;;;;;;4810169;29;20421;-78
2023/10/29 05:25:13;;;;;;;1.00;0.40;;;12.00;99.90;;;;;;4811564;29;20057;-78
2023/10/29 05:27:38;;;;;;;1.95;0.40;;;11.90;99.90;;;;;;4800991;29;20057;-78
2023/10/29 05:30:05;;;;;;;1.40;0.52;;;12.00;99.90;;;;;;4792509;29;20077;-78
2023/10/29 05:32:32;;;;;;;1.08;0.50;;;12.00;99.90;;;;;;4811311;29;20058;-79
2023/10/29 05:34:58;;;;;;;1.15;0.63;;;11.90;99.90;;;;;;4779813;29;20046;-78
2023/10/29 05:37:24;;;;;;;1.30;0.50;;;11.80;99.90;;;;;;4813746;29;20064;-78
2023/10/29 05:39:51;;;;;;;2.28;0.50;;;11.80;99.90;;;;;;4808640;29;20422;-78
2023/10/29 05:42:17;;;;;;;1.52;0.60;;;11.90;99.90;;;;;;4828588;29;20057;-79
2023/10/29 05:44:43;;;;;;;1.60;0.95;;;11.80;99.90;;;;;;4790537;29;20046;-80
2023/10/29 05:47:09;;;;;;;0.77;0.35;;;11.80;99.90;;;;;;4804313;29;20058;-78
2023/10/29 05:49:34;;;;;;;1.45;0.43;;;11.80;99.90;;;;;;4803094;29;20058;-78
2023/10/29 05:52:00;;;;;;;2.40;0.50;;;11.90;99.90;;;;;;4790708;29;20062;-78
2023/10/29 05:54:26;;;;;;;0.63;0.30;;;11.80;99.90;;;;;;4833550;29;20091;-78
2023/10/29 05:56:52;;;;;;;1.08;0.50;;;11.80;99.90;;;;;;4788026;29;20054;-79
2023/10/29 05:59:18;;;;;;;1.88;0.50;;;11.80;99.90;;;;;;4789914;29;20137;-79
2023/10/29 06:01:44;;;;;;;1.02;0.45;;;11.80;99.90;;;;;;4806358;29;20049;-78
2023/10/29 06:04:09;;;;;;;2.33;0.70;;;11.80;99.90;;;;;;4814568;29;20050;-78
2023/10/29 06:06:35;;;;;;;0.85;0.32;;;12.00;99.90;;;;;;4794652;29;20057;-79
2023/10/29 06:09:03;;;;;;;3.70;0.70;;;12.00;99.90;;;;;;4809090;29;20054;-78
2023/10/29 06:11:29;;;;;;;2.13;0.70;;;12.10;99.90;;;;;;4801523;29;20137;-79
2023/10/29 06:13:57;;;;;;;1.60;0.80;;;12.10;99.90;;;;;;4789868;29;20563;-79
2023/10/29 06:16:23;;;;;;;2.53;0.60;;;12.20;99.90;;;;;;4784151;29;20065;-78
2023/10/29 06:18:49;;;;;;;3.50;0.70;;;12.00;99.90;;;;;;4770751;29;20043;-78
2023/10/29 06:21:17;;;;;;;3.60;0.60;;;12.10;99.90;;;;;;4805968;29;20080;-79
2023/10/29 06:23:43;;;;;;;1.73;0.80;;;12.40;99.90;;;;;;4801647;29;20062;-78
2023/10/29 06:26:08;;;;;;;1.35;0.70;;;12.20;99.90;;;;;;4811992;29;20046;-77
2023/10/29 06:28:34;;;;;;;1.55;0.68;;;12.40;99.90;;;;;;4823265;29;20058;-78
2023/10/29 06:31:00;;;;;;;5.47;0.80;;;12.30;99.90;;;;;;4817804;29;20097;-78
2023/10/29 06:33:26;;;;;;;4.00;0.70;;;12.10;99.90;;;;;;4828855;29;20046;-78
2023/10/29 06:35:52;;;;;;;1.60;0.63;;;12.30;99.90;;;;;;4818847;29;20060;-77
2023/10/29 06:38:17;;;;;;;4.07;0.63;;;12.30;99.90;;;;;;4817922;29;20119;-77
2023/10/29 06:40:43;;;;;;;2.42;0.77;;;12.30;99.90;;;;;;4811075;29;20066;-77
2023/10/29 06:43:12;;;;;;;1.60;0.68;;;12.20;99.90;;;;;;4801007;29;20046;-78
2023/10/29 06:45:39;;;;;;;3.13;0.63;;;12.10;99.90;;;;;;4817908;29;20050;-78
2023/10/29 06:48:05;;;;;;;3.03;0.80;;;12.00;99.90;;;;;;4826994;29;20494;-79
2023/10/29 06:50:31;;;;;;;4.70;0.70;;;12.10;99.90;;;;;;4822157;29;20057;-84
2023/10/29 06:52:57;;;;;;;3.60;0.75;;;12.30;99.90;;;;;;4836178;29;20050;-83
2023/10/29 06:55:25;;;;;;;6.28;0.90;;;12.30;99.90;;;;;;4826351;29;20062;-83
2023/10/29 06:57:51;;;;;;;3.65;0.70;;;12.40;99.90;;;;;;4806218;29;20049;-83
2023/10/29 07:00:16;;;;;;;2.42;0.60;;;12.20;99.90;;;;;;4804668;29;20050;-83
2023/10/29 07:02:42;;;;;;;3.35;0.93;;;12.30;99.90;;;;;;4794959;29;20055;-83
2023/10/29 07:05:08;;;;;;;2.80;0.77;;;12.40;99.90;;;;;;4828536;29;20058;-83
2023/10/29 07:07:34;;;;;;;2.70;0.90;;;12.20;99.90;;;;;;4812871;29;20065;-82
2023/10/29 07:10:06;;;;;;;4.57;0.75;;;12.30;99.90;;;;;;4821927;29;20506;-83
2023/10/29 07:12:32;;;;;;;3.40;0.70;;;12.30;99.90;;;;;;4806415;29;20046;-83
2023/10/29 07:15:01;;;;;;;2.75;0.98;;;12.40;99.90;;;;;;4812963;29;20199;-83
2023/10/29 07:17:29;;;;;;;1.65;0.50;;;12.50;99.90;;;;;;4780934;29;20081;-83
2023/10/29 07:19:54;;;;;;;1.05;0.60;;;12.40;99.90;;;;;;4807015;29;20065;-79
2023/10/29 07:22:21;;;;;;;2.63;0.75;;;12.50;99.90;;;;;;4806669;29;20399;-82
2023/10/29 07:24:46;;;;;;;;;;;12.40;99.90;;;;;;4792229;29;20046;-83
2023/10/29 07:27:12;;;;;;;2.22;0.60;;;12.50;99.90;;;;;;4806856;29;19928;-84
2023/10/29 07:29:38;;;;;;;1.23;0.60;;;12.50;99.90;;;;;;4806510;29;20092;-84
2023/10/29 07:32:03;;;;;;;4.93;0.70;;;12.50;99.90;;;;;;4817903;29;20069;-84
2023/10/29 07:34:31;;;;;;;3.35;0.70;;;12.50;99.90;;;;;;4795540;29;20058;-83
2023/10/29 07:36:56;;;;;;;1.13;0.60;;;12.60;99.90;;;;;;4807015;29;20054;-82
2023/10/29 07:39:22;;;;;;;2.67;0.88;;;12.50;99.90;;;;;;4808610;29;20464;-84
2023/10/29 07:41:47;;;;;;;2.80;0.70;;;12.60;99.90;;;;;;4807681;29;20046;-82
2023/10/29 07:44:13;;;;;;;2.83;0.65;;;12.60;99.90;;;;;;4816586;29;20055;-83
2023/10/29 07:46:42;;;;;;;2.63;0.60;;;12.60;99.90;;;;;;4795171;29;20053;-83
2023/10/29 07:49:07;;;;;;;2.50;0.60;;;12.60;99.90;;;;;;4809594;29;20403;-84
2023/10/29 07:51:33;;;;;;;3.30;0.88;;;12.60;99.90;;;;;;4817347;29;20062;-84
2023/10/29 07:53:59;;;;;;;1.80;0.47;;;12.60;99.90;;;;;;4794761;29;20054;-84
2023/10/29 07:56:24;;;;;;;3.20;0.60;;;12.70;99.90;;;;;;4781444;29;20092;-84
2023/10/29 07:58:51;;;;;;;1.60;0.60;;;12.60;99.90;;;;;;4833225;29;20071;-83
2023/10/29 08:01:17;;;;;;;3.83;0.77;;;12.70;99.90;;;;;;4808768;29;20054;-83
2023/10/29 08:03:44;;;;;;;5.78;1.02;;;12.60;99.90;;;;;;4809654;29;20111;-83
2023/10/29 08:06:11;;;;;;;3.30;0.70;;;12.60;99.90;;;;;;4807220;29;20084;-83
2023/10/29 08:08:37;;;;;;;2.83;0.82;;;12.60;99.90;;;;;;4840381;29;20050;-84
2023/10/29 08:11:03;;;;;;;1.92;0.40;;;12.60;99.90;;;;;;4807133;29;20141;-83
2023/10/29 08:13:29;;;;;;;4.43;0.80;;;12.70;99.90;;;;;;4794572;29;20125;-84
2023/10/29 08:15:55;;;;;;;3.38;0.63;;;12.70;99.90;;;;;;4791747;29;20476;-83
2023/10/29 08:18:21;;;;;;;;;;;12.80;99.90;;;;;;4808089;29;20122;-84
2023/10/29 08:20:47;;;;;;;3.85;0.90;;;12.80;99.90;;;;;;4807521;29;19924;-84
2023/10/29 08:23:12;;;;;;;3.45;0.70;;;12.90;99.90;;;;;;4824569;29;20061;-78
2023/10/29 08:25:38;;;;;;;3.65;0.60;;;12.90;99.90;;;;;;4822580;29;20061;-79
2023/10/29 08:28:06;;;;;;;5.10;0.95;;;12.90;99.90;;;;;;4807120;29;20066;-79
2023/10/29 08:30:32;;;;;;;2.63;0.70;;;13.00;99.90;;;;;;4788922;29;20704;-78
2023/10/29 08:32:58;;;;;;;3.20;0.63;;;13.00;99.90;;;;;;4822283;29;20467;-79
2023/10/29 08:35:23;;;;;;;4.32;0.98;;;13.00;99.90;;;;;;4816499;29;20050;-78
2023/10/29 08:37:50;;;;;;;4.50;0.77;;;13.00;99.90;;;;;;4801623;29;20545;-78
2023/10/29 08:40:16;;;;;;;5.07;0.70;;;13.00;99.90;;;;;;4814616;29;20073;-78
2023/10/29 08:42:42;;;;;;;4.38;0.70;;;13.00;99.90;;;;;;4834167;29;20050;-78
2023/10/29 08:45:08;;;;;;;6.03;1.00;;;13.00;99.90;;;;;;4814039;29;20435;-77
2023/10/29 08:47:36;;;;;;;8.15;0.90;;;13.10;99.90;;;;;;4835937;29;20181;-78
2023/10/29 08:50:03;;;;;;;3.78;0.73;;;13.00;99.90;;;;;;4817263;29;20054;-79
2023/10/29 08:52:29;;;;;;;2.35;0.80;;;13.00;99.90;;;;;;4803868;29;20467;-84
2023/10/29 08:54:54;;;;;;;3.42;0.98;;;13.00;99.90;;;;;;4808840;29;20065;-85
2023/10/29 08:57:21;;;;;;;3.22;0.93;;;12.90;99.90;;;;;;4793534;29;20089;-84
2023/10/29 08:59:47;;;;;;;3.85;0.90;;;12.90;99.90;;;;;;4805816;29;20383;-78
2023/10/29 09:02:13;;;;;;;4.28;1.50;;;12.90;99.90;;;;;;4820225;29;20050;-77
2023/10/29 09:04:39;;;;;;;4.78;0.75;;;13.00;99.90;;;;;;4823930;29;20065;-84
2023/10/29 09:07:05;;;;;;;3.10;0.63;;;13.00;99.90;;;;;;4821242;29;20058;-79
2023/10/29 09:09:36;;;;;;;3.55;0.70;;;13.10;99.90;;;;;;4821747;29;20132;-78
2023/10/29 09:12:02;;;;;;;5.25;0.73;;;13.10;99.90;;;;;;4803346;29;20476;-83
2023/10/29 09:14:27;;;;;;;2.58;0.57;;;13.20;99.90;;;;;;4822808;29;20058;-86
2023/10/29 09:16:53;;;;;;;3.92;0.90;;;13.20;99.90;;;;;;4808734;29;20059;-85
2023/10/29 09:19:19;;;;;;;4.47;0.98;;;13.20;99.90;;;;;;4823464;29;20042;-86
2023/10/29 09:21:51;;;;;;;3.72;0.77;;;13.20;99.90;;;;;;4808016;29;20118;-85
2023/10/29 09:24:17;;;;;;;3.85;0.70;;;13.20;99.90;;;;;;4808111;29;20062;-78
2023/10/29 09:26:43;;;;;;;5.95;0.85;;;13.20;99.90;;;;;;4818469;29;20050;-78
2023/10/29 09:29:08;;;;;;;5.47;1.00;;;13.30;99.90;;;;;;4819603;29;20484;-78
2023/10/29 09:31:34;;;;;;;3.60;0.90;;;13.40;99.90;;;;;;4804589;29;20050;-84
2023/10/29 09:34:01;;;;;;;4.03;0.90;;;13.60;99.90;;;;;;4835074;29;20062;-84
2023/10/29 09:36:28;;;;;;;5.95;1.10;;;13.60;99.90;;;;;;4806119;29;20062;-84
2023/10/29 09:38:54;;;;;;;3.45;1.10;;;13.60;99.90;;;;;;4837883;29;20105;-86
2023/10/29 09:41:19;;;;;;;10.80;0.98;;;13.70;99.90;;;;;;4820107;29;20516;-86
2023/10/29 09:43:46;;;;;;;3.88;1.00;;;13.80;99.90;;;;;;4773776;29;20792;-77
2023/10/29 09:46:12;;;;;;;4.57;0.85;;;13.80;99.90;;;;;;4835635;29;20098;-79
2023/10/29 09:48:41;;;;;;;6.93;1.70;;;13.80;99.90;;;;;;4800805;29;20057;-78
2023/10/29 09:51:07;;;;;;;5.43;1.20;;;13.80;99.90;;;;;;4817301;29;20058;-84
2023/10/29 09:53:37;;;;;;;5.50;0.80;;;13.90;99.90;;;;;;4822199;29;20620;-85
2023/10/29 09:56:07;;;;;;;3.47;0.95;;;14.00;99.90;;;;;;4819542;29;20058;-84
2023/10/29 09:58:34;;;;;;;4.80;1.00;;;14.00;99.90;;;;;;4795950;29;20920;-85
2023/10/29 10:01:01;;;;;;;4.03;1.15;;;14.00;99.90;;;;;;4824412;29;20440;-82
2023/10/29 10:03:27;;;;;;;7.15;1.15;;;14.00;99.90;;;;;;4804608;29;20061;-87
2023/10/29 10:05:53;;;;;;;4.38;1.00;;;14.10;99.90;;;;;;4799923;29;20046;-84
2023/10/29 10:08:29;;;;;;;3.88;0.82;;;14.10;99.90;;;;;;4808342;29;20051;-84
2023/10/29 10:10:56;;;;;;;3.83;0.90;;;14.10;99.90;;;;;;4807959;29;20089;-85
2023/10/29 10:13:35;;;;;;;3.42;0.90;;;14.00;99.90;;;;;;4809851;29;20082;-85
2023/10/29 10:16:06;;;;;;;4.75;1.30;;;14.10;99.90;;;;;;4804914;29;20456;-85
2023/10/29 10:18:46;;;;;;;2.35;0.70;;;14.10;99.90;;;;;;4807002;29;20114;-86
2023/10/29 10:21:13;;;;;;;2.60;0.80;;;14.10;99.90;;;;;;4805706;29;20568;-83
2023/10/29 10:23:47;;;;;;;3.63;0.90;;;14.10;99.90;;;;;;4813328;29;20518;-84
2023/10/29 10:26:14;;;;;;;5.35;1.00;;;14.10;99.90;;;;;;4806774;29;20051;-84
2023/10/29 10:28:53;;;;;;;4.43;0.85;;;14.20;99.90;;;;;;4813931;29;20127;-84
2023/10/29 10:31:19;;;;;;;5.68;0.98;;;14.40;99.90;;;;;;4833988;29;20093;-85
2023/10/29 10:33:45;;;;;;;4.85;0.98;;;14.40;99.90;;;;;;4815864;29;20491;-85
2023/10/29 10:36:10;;;;;;;4.07;1.10;;;14.40;99.90;;;;;;4808596;29;20058;-86
2023/10/29 10:38:51;;;;;;;6.05;1.10;;;14.40;99.90;;;;;;4806535;29;20062;-87
2023/10/29 10:41:17;;;;;;;3.00;0.90;;;14.40;99.90;;;;;;4792338;29;20047;-85
2023/10/29 10:43:43;;;;;;;3.20;0.85;;;14.50;99.90;;;;;;4831613;29;20123;-84
2023/10/29 10:46:12;;;;;;;4.15;1.30;;;14.60;99.90;;;;;;4791244;29;20061;-85
2023/10/29 10:48:42;;;;;;;4.70;1.38;;;14.70;99.90;;;;;;4806670;29;20061;-86
2023/10/29 10:51:11;;;;;;;4.22;1.02;;;14.70;99.90;;;;;;4793951;29;20058;-85
2023/10/29 10:53:38;;;;;;;8.77;1.00;;;14.80;99.90;;;;;;4806351;29;20885;-86
2023/10/29 10:56:08;;;;;;;4.95;1.00;;;14.80;99.90;;;;;;4804898;29;20066;-86
2023/10/29 10:58:36;;;;;;;6.10;1.42;;;14.90;99.90;;;;;;4792761;29;20125;-86
2023/10/29 11:01:02;;;;;;;5.50;1.42;;;14.80;99.90;;;;;;4792021;29;20066;-84
2023/10/29 11:03:32;;;;;;;3.90;1.20;;;14.80;99.90;;;;;;4791933;29;20444;-86
2023/10/29 11:05:59;;;;;;;3.03;1.00;;;14.80;99.90;;;;;;4791762;29;20038;-88
2023/10/29 11:08:25;;;;;;;5.72;1.27;;;15.00;99.90;;;;;;4810485;29;20047;-86
2023/10/29 11:10:53;;;;;;;;;;;15.10;99.90;;;;;;4809492;29;20085;-86
2023/10/29 11:13:20;;;;;;;6.65;1.42;;;15.00;99.90;;;;;;4811120;29;19924;-86
2023/10/29 11:15:47;;;;;;;5.43;1.63;;;14.90;99.90;;;;;;4795993;29;20062;-86
2023/10/29 11:18:13;;;;;;;5.13;1.05;;;14.70;99.90;;;;;;4811265;29;20452;-84
2023/10/29 11:20:59;;;;;;;3.72;1.10;;;14.60;99.90;;;;;;4809138;29;20074;-77
2023/10/29 11:23:29;;;;;;;6.65;1.20;;;14.60;99.90;;;;;;4823900;29;20493;-79
2023/10/29 11:26:20;;;;;;;4.32;1.23;;;14.60;99.90;;;;;;4822176;29;20054;-77
2023/10/29 11:28:47;;;;;;;3.53;0.98;;;14.70;99.90;;;;;;4822005;29;20051;-77
2023/10/29 11:31:14;;;;;;;4.13;1.13;;;14.70;99.90;;;;;;4806991;29;20050;-76
2023/10/29 11:34:01;;;;;;;7.20;1.38;;;14.60;99.90;;;;;;4824532;29;20058;-77
2023/10/29 11:36:34;;;;;;;3.17;0.90;;;14.70;99.90;;;;;;4820727;29;20077;-76
2023/10/29 11:39:15;;;;;;;4.97;1.40;;;14.90;99.90;;;;;;4827023;29;20153;-78
2023/10/29 11:41:47;;;;;;;5.97;1.55;;;14.90;99.90;;;;;;4821835;29;20129;-76
2023/10/29 11:44:18;;;;;;;6.57;1.50;;;15.10;99.90;;;;;;4832925;29;20060;-77
2023/10/29 11:46:59;;;;;;;6.45;1.52;;;14.90;99.90;;;;;;4799102;29;20179;-77
2023/10/29 11:49:44;;;;;;;5.25;1.38;;;15.00;99.90;;;;;;4822052;29;20057;-77
2023/10/29 11:52:10;;;;;;;4.93;1.50;;;14.80;99.90;;;;;;4824516;29;20058;-77
2023/10/29 11:54:38;;;;;;;7.43;1.60;;;14.60;99.90;;;;;;4821887;29;20074;-76
2023/10/29 11:57:06;;;;;;;6.50;1.30;;;14.40;99.90;;;;;;4793983;29;20069;-77
2023/10/29 11:59:32;;;;;;;10.70;1.50;;;14.40;99.90;;;;;;4818757;29;20110;-78
2023/10/29 12:01:58;;;;;;;7.90;1.70;;;14.40;99.90;;;;;;4785153;29;20414;-78
2023/10/29 12:04:30;;;;;;;5.70;1.13;;;14.30;99.90;;;;;;4788233;29;20050;-78
2023/10/29 12:06:59;;;;;;;4.40;1.33;;;14.30;99.90;;;;;;4822896;29;20061;-78
2023/10/29 12:09:27;;;;;;;5.72;1.10;;;14.40;99.90;;;;;;4824033;29;20061;-78
2023/10/29 12:11:54;;;;;;;6.10;1.20;;;14.40;99.90;;;;;;4821831;29;20061;-77
2023/10/29 12:14:39;;;;;;;4.55;1.02;;;14.40;99.90;;;;;;4792541;29;20073;-76
2023/10/29 12:17:06;;;;;;;6.13;1.15;;;14.30;99.90;;;;;;4792940;29;20355;-77
2023/10/29 12:19:41;;;;;;;7.20;1.40;;;14.30;99.90;;;;;;4815317;29;20407;-77
2023/10/29 12:22:31;;;;;;;6.78;1.50;;;14.20;99.90;;;;;;4821942;29;20169;-77
2023/10/29 12:25:02;;;;;;;5.57;1.60;;;14.20;99.90;;;;;;4822587;29;20058;-77
2023/10/29 12:27:30;;;;;;;8.75;1.65;;;14.20;99.90;;;;;;4827129;29;20518;-77
2023/10/29 12:29:56;;;;;;;7.13;1.48;;;14.30;99.90;;;;;;4802586;29;20062;-77
2023/10/29 12:32:22;;;;;;;;;;;14.30;99.90;;;;;;4825298;29;20045;-77
2023/10/29 12:34:56;;;;;;;5.97;1.20;;;14.30;99.90;;;;;;4819863;29;19960;-77
2023/10/29 12:37:25;;;;;;;5.93;1.17;;;14.30;99.90;;;;;;4817210;29;20061;-78
2023/10/29 12:39:55;;;;;;;4.90;1.08;;;14.30;99.90;;;;;;4812657;29;20161;-77
2023/10/29 12:42:40;;;;;;;6.85;1.65;;;14.30;99.90;;;;;;4822938;29;20050;-78
2023/10/29 12:45:08;;;;;;;7.53;1.30;;;14.30;99.90;;;;;;4832062;29;20090;-77
2023/10/29 12:47:34;;;;;;;4.72;1.27;;;14.30;99.90;;;;;;4807523;29;20081;-77